Terminal Aerodrome Forecast
Issued by NWS

Home | Current Version | Previous Version | Text Only | Print | Product List | Glossary On
Versions: 1 2 3 4 5 6 7 8 9 10 11 12 13
452
FTUS44 KLIX 221130
TAFGPT
TAF
KGPT 221130Z 2212/2312 02007KT P6SM BKN012 OVC050
     FM221400 04010KT P6SM BKN020
     FM221800 11008KT P6SM SCT040
     FM230500 12005KT P6SM BKN040=

USA.gov is the U.S. government's official web portal to all federal, state and local government web resources and services.